sensor_id;sensor_type;location;lat;lon;timestamp;P1;durP1;ratioP1;P2;durP2;ratioP2
11414;SDS011;5763;42.714;23.244;2022-07-29T00:01:46;9.65;;;8.65;;
11414;SDS011;5763;42.714;23.244;2022-07-29T00:04:14;9.23;;;8.32;;
11414;SDS011;5763;42.714;23.244;2022-07-29T00:06:41;8.93;;;8.20;;
11414;SDS011;5763;42.714;23.244;2022-07-29T00:09:08;9.68;;;8.43;;
11414;SDS011;5763;42.714;23.244;2022-07-29T00:11:34;8.98;;;8.15;;
11414;SDS011;5763;42.714;23.244;2022-07-29T00:14:01;8.07;;;7.28;;
11414;SDS011;5763;42.714;23.244;2022-07-29T00:16:28;9.00;;;8.10;;
11414;SDS011;5763;42.714;23.244;2022-07-29T00:18:55;8.45;;;6.95;;
11414;SDS011;5763;42.714;23.244;2022-07-29T00:21:23;8.43;;;7.63;;
11414;SDS011;5763;42.714;23.244;2022-07-29T00:23:50;7.60;;;6.90;;
11414;SDS011;5763;42.714;23.244;2022-07-29T00:26:17;10.88;;;7.38;;
11414;SDS011;5763;42.714;23.244;2022-07-29T00:28:44;8.48;;;7.50;;
11414;SDS011;5763;42.714;23.244;2022-07-29T00:31:10;8.65;;;7.63;;
11414;SDS011;5763;42.714;23.244;2022-07-29T00:33:37;8.52;;;7.72;;
11414;SDS011;5763;42.714;23.244;2022-07-29T00:36:04;8.32;;;7.25;;
11414;SDS011;5763;42.714;23.244;2022-07-29T00:38:31;8.73;;;8.00;;
11414;SDS011;5763;42.714;23.244;2022-07-29T00:40:58;8.80;;;7.93;;
11414;SDS011;5763;42.714;23.244;2022-07-29T00:43:25;10.27;;;8.20;;
11414;SDS011;5763;42.714;23.244;2022-07-29T00:45:52;8.98;;;8.07;;
11414;SDS011;5763;42.714;23.244;2022-07-29T00:48:18;8.88;;;7.97;;
11414;SDS011;5763;42.714;23.244;2022-07-29T00:50:45;9.00;;;8.20;;
11414;SDS011;5763;42.714;23.244;2022-07-29T00:53:12;9.57;;;8.40;;
11414;SDS011;5763;42.714;23.244;2022-07-29T00:55:40;9.35;;;8.48;;
11414;SDS011;5763;42.714;23.244;2022-07-29T00:58:07;9.70;;;8.80;;
11414;SDS011;5763;42.714;23.244;2022-07-29T01:00:34;9.73;;;8.73;;
11414;SDS011;5763;42.714;23.244;2022-07-29T01:03:02;10.18;;;9.18;;
11414;SDS011;5763;42.714;23.244;2022-07-29T01:05:29;9.40;;;8.50;;
11414;SDS011;5763;42.714;23.244;2022-07-29T01:07:56;9.88;;;8.73;;
11414;SDS011;5763;42.714;23.244;2022-07-29T01:10:24;10.20;;;9.05;;
11414;SDS011;5763;42.714;23.244;2022-07-29T01:12:52;9.90;;;8.90;;
11414;SDS011;5763;42.714;23.244;2022-07-29T01:15:21;9.43;;;8.52;;
11414;SDS011;5763;42.714;23.244;2022-07-29T01:17:50;9.50;;;8.60;;
11414;SDS011;5763;42.714;23.244;2022-07-29T01:20:25;10.60;;;9.15;;
11414;SDS011;5763;42.714;23.244;2022-07-29T01:23:08;8.88;;;8.07;;
11414;SDS011;5763;42.714;23.244;2022-07-29T01:26:04;9.70;;;8.70;;
11414;SDS011;5763;42.714;23.244;2022-07-29T01:29:00;10.00;;;8.73;;
11414;SDS011;5763;42.714;23.244;2022-07-29T01:31:31;9.95;;;9.02;;
11414;SDS011;5763;42.714;23.244;2022-07-29T01:34:05;9.88;;;9.00;;
11414;SDS011;5763;42.714;23.244;2022-07-29T01:36:35;10.18;;;9.27;;
11414;SDS011;5763;42.714;23.244;2022-07-29T01:39:07;10.73;;;9.43;;
11414;SDS011;5763;42.714;23.244;2022-07-29T01:41:37;10.70;;;9.60;;
11414;SDS011;5763;42.714;23.244;2022-07-29T01:44:13;11.27;;;9.68;;
11414;SDS011;5763;42.714;23.244;2022-07-29T01:46:47;9.85;;;8.90;;
11414;SDS011;5763;42.714;23.244;2022-07-29T01:49:17;10.00;;;9.00;;
11414;SDS011;5763;42.714;23.244;2022-07-29T01:51:49;10.13;;;9.10;;
11414;SDS011;5763;42.714;23.244;2022-07-29T01:54:18;9.57;;;8.68;;
11414;SDS011;5763;42.714;23.244;2022-07-29T01:56:48;10.32;;;9.27;;
11414;SDS011;5763;42.714;23.244;2022-07-29T01:59:18;11.75;;;9.00;;
11414;SDS011;5763;42.714;23.244;2022-07-29T02:01:48;9.07;;;8.18;;
11414;SDS011;5763;42.714;23.244;2022-07-29T02:04:18;10.23;;;9.23;;
11414;SDS011;5763;42.714;23.244;2022-07-29T02:06:46;10.80;;;8.88;;
11414;SDS011;5763;42.714;23.244;2022-07-29T02:09:17;10.20;;;9.20;;
11414;SDS011;5763;42.714;23.244;2022-07-29T02:11:47;9.73;;;8.55;;
11414;SDS011;5763;42.714;23.244;2022-07-29T02:14:19;9.90;;;8.30;;
11414;SDS011;5763;42.714;23.244;2022-07-29T02:16:48;8.55;;;7.75;;
11414;SDS011;5763;42.714;23.244;2022-07-29T02:19:19;9.52;;;8.02;;
11414;SDS011;5763;42.714;23.244;2022-07-29T02:21:51;8.40;;;7.60;;
11414;SDS011;5763;42.714;23.244;2022-07-29T02:24:19;9.20;;;7.55;;
11414;SDS011;5763;42.714;23.244;2022-07-29T02:26:50;9.30;;;7.70;;
11414;SDS011;5763;42.714;23.244;2022-07-29T02:29:21;9.13;;;8.23;;
11414;SDS011;5763;42.714;23.244;2022-07-29T02:31:49;8.48;;;7.68;;
11414;SDS011;5763;42.714;23.244;2022-07-29T02:34:18;9.57;;;8.45;;
11414;SDS011;5763;42.714;23.244;2022-07-29T02:36:46;8.68;;;7.88;;
11414;SDS011;5763;42.714;23.244;2022-07-29T02:39:14;9.25;;;8.35;;
11414;SDS011;5763;42.714;23.244;2022-07-29T02:41:44;9.27;;;8.38;;
11414;SDS011;5763;42.714;23.244;2022-07-29T02:44:13;8.98;;;8.00;;
11414;SDS011;5763;42.714;23.244;2022-07-29T02:46:45;8.95;;;7.57;;
11414;SDS011;5763;42.714;23.244;2022-07-29T02:49:17;11.48;;;8.50;;
11414;SDS011;5763;42.714;23.244;2022-07-29T02:51:54;9.88;;;8.00;;
11414;SDS011;5763;42.714;23.244;2022-07-29T02:54:28;9.77;;;8.15;;
11414;SDS011;5763;42.714;23.244;2022-07-29T02:57:00;8.10;;;7.38;;
11414;SDS011;5763;42.714;23.244;2022-07-29T02:59:36;9.45;;;8.45;;
11414;SDS011;5763;42.714;23.244;2022-07-29T03:02:05;10.85;;;8.57;;
11414;SDS011;5763;42.714;23.244;2022-07-29T03:04:33;9.52;;;8.13;;
11414;SDS011;5763;42.714;23.244;2022-07-29T03:07:01;9.88;;;8.43;;
11414;SDS011;5763;42.714;23.244;2022-07-29T03:09:29;9.27;;;7.75;;
11414;SDS011;5763;42.714;23.244;2022-07-29T03:11:57;9.80;;;8.90;;
11414;SDS011;5763;42.714;23.244;2022-07-29T03:14:24;9.80;;;8.70;;
11414;SDS011;5763;42.714;23.244;2022-07-29T03:16:52;9.65;;;8.75;;
11414;SDS011;5763;42.714;23.244;2022-07-29T03:19:21;9.80;;;8.80;;
11414;SDS011;5763;42.714;23.244;2022-07-29T03:21:48;9.80;;;8.90;;
11414;SDS011;5763;42.714;23.244;2022-07-29T03:24:28;11.05;;;9.55;;
11414;SDS011;5763;42.714;23.244;2022-07-29T03:26:57;10.40;;;9.30;;
11414;SDS011;5763;42.714;23.244;2022-07-29T03:29:24;12.35;;;10.32;;
11414;SDS011;5763;42.714;23.244;2022-07-29T03:31:51;13.25;;;10.30;;
11414;SDS011;5763;42.714;23.244;2022-07-29T03:34:17;13.80;;;10.32;;
11414;SDS011;5763;42.714;23.244;2022-07-29T03:36:46;13.15;;;11.10;;
11414;SDS011;5763;42.714;23.244;2022-07-29T03:39:14;11.98;;;10.55;;
11414;SDS011;5763;42.714;23.244;2022-07-29T03:41:44;10.98;;;9.75;;
11414;SDS011;5763;42.714;23.244;2022-07-29T03:44:13;12.30;;;9.80;;
11414;SDS011;5763;42.714;23.244;2022-07-29T03:46:43;11.18;;;9.15;;
11414;SDS011;5763;42.714;23.244;2022-07-29T03:49:10;10.73;;;9.60;;
11414;SDS011;5763;42.714;23.244;2022-07-29T03:51:40;10.70;;;9.43;;
11414;SDS011;5763;42.714;23.244;2022-07-29T03:54:08;11.35;;;10.15;;
11414;SDS011;5763;42.714;23.244;2022-07-29T03:56:37;10.63;;;9.50;;
11414;SDS011;5763;42.714;23.244;2022-07-29T03:59:06;10.40;;;9.40;;
11414;SDS011;5763;42.714;23.244;2022-07-29T04:01:34;9.70;;;8.88;;
11414;SDS011;5763;42.714;23.244;2022-07-29T04:04:02;10.65;;;9.60;;
11414;SDS011;5763;42.714;23.244;2022-07-29T04:06:36;10.63;;;9.25;;
11414;SDS011;5763;42.714;23.244;2022-07-29T04:09:04;11.98;;;9.88;;
11414;SDS011;5763;42.714;23.244;2022-07-29T04:11:33;11.45;;;9.02;;
11414;SDS011;5763;42.714;23.244;2022-07-29T04:14:00;9.60;;;8.63;;
11414;SDS011;5763;42.714;23.244;2022-07-29T04:16:27;11.15;;;9.88;;
11414;SDS011;5763;42.714;23.244;2022-07-29T04:18:54;11.60;;;9.43;;
11414;SDS011;5763;42.714;23.244;2022-07-29T04:21:21;12.55;;;9.77;;
11414;SDS011;5763;42.714;23.244;2022-07-29T04:23:48;11.30;;;10.10;;
11414;SDS011;5763;42.714;23.244;2022-07-29T04:26:15;12.75;;;11.32;;
11414;SDS011;5763;42.714;23.244;2022-07-29T04:28:44;11.40;;;10.20;;
11414;SDS011;5763;42.714;23.244;2022-07-29T04:31:11;11.43;;;10.27;;
11414;SDS011;5763;42.714;23.244;2022-07-29T04:33:39;11.38;;;10.07;;
11414;SDS011;5763;42.714;23.244;2022-07-29T04:36:06;12.70;;;11.23;;
11414;SDS011;5763;42.714;23.244;2022-07-29T04:38:32;13.65;;;10.68;;
11414;SDS011;5763;42.714;23.244;2022-07-29T04:40:59;11.50;;;10.18;;
11414;SDS011;5763;42.714;23.244;2022-07-29T04:43:26;13.02;;;10.18;;
11414;SDS011;5763;42.714;23.244;2022-07-29T04:45:54;11.93;;;10.70;;
11414;SDS011;5763;42.714;23.244;2022-07-29T04:48:21;11.23;;;9.95;;
11414;SDS011;5763;42.714;23.244;2022-07-29T04:50:47;13.32;;;11.70;;
11414;SDS011;5763;42.714;23.244;2022-07-29T04:53:14;12.13;;;9.98;;
11414;SDS011;5763;42.714;23.244;2022-07-29T04:55:41;12.50;;;11.07;;
11414;SDS011;5763;42.714;23.244;2022-07-29T04:58:08;12.38;;;11.18;;
11414;SDS011;5763;42.714;23.244;2022-07-29T05:00:34;12.98;;;11.57;;
11414;SDS011;5763;42.714;23.244;2022-07-29T05:03:02;13.20;;;11.18;;
11414;SDS011;5763;42.714;23.244;2022-07-29T05:05:29;13.23;;;11.90;;
11414;SDS011;5763;42.714;23.244;2022-07-29T05:07:56;13.88;;;12.48;;
11414;SDS011;5763;42.714;23.244;2022-07-29T05:10:23;14.13;;;11.95;;
11414;SDS011;5763;42.714;23.244;2022-07-29T05:12:50;12.88;;;11.57;;
11414;SDS011;5763;42.714;23.244;2022-07-29T05:15:17;13.23;;;11.98;;
11414;SDS011;5763;42.714;23.244;2022-07-29T05:17:44;12.55;;;11.38;;
11414;SDS011;5763;42.714;23.244;2022-07-29T05:20:13;13.20;;;11.77;;
11414;SDS011;5763;42.714;23.244;2022-07-29T05:22:39;12.57;;;11.32;;
11414;SDS011;5763;42.714;23.244;2022-07-29T05:25:06;35.78;;;31.90;;
11414;SDS011;5763;42.714;23.244;2022-07-29T05:27:34;45.72;;;37.28;;
11414;SDS011;5763;42.714;23.244;2022-07-29T05:30:03;19.83;;;17.70;;
11414;SDS011;5763;42.714;23.244;2022-07-29T05:32:30;14.30;;;12.70;;
11414;SDS011;5763;42.714;23.244;2022-07-29T05:34:56;14.65;;;12.45;;
11414;SDS011;5763;42.714;23.244;2022-07-29T05:37:25;13.80;;;12.40;;
11414;SDS011;5763;42.714;23.244;2022-07-29T05:39:51;14.70;;;13.20;;
11414;SDS011;5763;42.714;23.244;2022-07-29T05:42:18;13.35;;;11.98;;
11414;SDS011;5763;42.714;23.244;2022-07-29T05:44:45;16.35;;;12.57;;
11414;SDS011;5763;42.714;23.244;2022-07-29T05:47:12;12.88;;;11.60;;
11414;SDS011;5763;42.714;23.244;2022-07-29T05:49:39;13.07;;;11.70;;
11414;SDS011;5763;42.714;23.244;2022-07-29T05:52:06;13.82;;;12.27;;
11414;SDS011;5763;42.714;23.244;2022-07-29T05:54:36;18.50;;;13.13;;
11414;SDS011;5763;42.714;23.244;2022-07-29T05:57:03;15.40;;;13.82;;
11414;SDS011;5763;42.714;23.244;2022-07-29T05:59:35;16.30;;;13.38;;
11414;SDS011;5763;42.714;23.244;2022-07-29T06:02:03;15.15;;;13.65;;
11414;SDS011;5763;42.714;23.244;2022-07-29T06:04:32;14.60;;;13.07;;
11414;SDS011;5763;42.714;23.244;2022-07-29T06:06:59;14.60;;;13.07;;
11414;SDS011;5763;42.714;23.244;2022-07-29T06:09:26;14.13;;;12.32;;
11414;SDS011;5763;42.714;23.244;2022-07-29T06:11:55;14.90;;;13.10;;
11414;SDS011;5763;42.714;23.244;2022-07-29T06:14:23;13.82;;;12.43;;
11414;SDS011;5763;42.714;23.244;2022-07-29T06:16:49;15.40;;;13.80;;
11414;SDS011;5763;42.714;23.244;2022-07-29T06:19:16;15.18;;;12.90;;
11414;SDS011;5763;42.714;23.244;2022-07-29T06:21:43;17.90;;;14.02;;
11414;SDS011;5763;42.714;23.244;2022-07-29T06:24:11;16.45;;;14.65;;
11414;SDS011;5763;42.714;23.244;2022-07-29T06:26:38;15.45;;;13.85;;
11414;SDS011;5763;42.714;23.244;2022-07-29T06:29:07;17.88;;;14.50;;
11414;SDS011;5763;42.714;23.244;2022-07-29T06:31:37;16.17;;;14.30;;
11414;SDS011;5763;42.714;23.244;2022-07-29T06:34:04;16.58;;;14.90;;
11414;SDS011;5763;42.714;23.244;2022-07-29T06:36:33;16.83;;;15.13;;
11414;SDS011;5763;42.714;23.244;2022-07-29T06:39:01;17.17;;;13.93;;
11414;SDS011;5763;42.714;23.244;2022-07-29T06:41:32;14.95;;;13.55;;
11414;SDS011;5763;42.714;23.244;2022-07-29T06:44:00;18.42;;;16.40;;
11414;SDS011;5763;42.714;23.244;2022-07-29T06:46:28;16.08;;;14.38;;
11414;SDS011;5763;42.714;23.244;2022-07-29T06:48:55;16.88;;;14.48;;
11414;SDS011;5763;42.714;23.244;2022-07-29T06:51:22;16.08;;;14.38;;
11414;SDS011;5763;42.714;23.244;2022-07-29T06:53:49;17.05;;;14.77;;
11414;SDS011;5763;42.714;23.244;2022-07-29T06:56:17;15.10;;;13.55;;
11414;SDS011;5763;42.714;23.244;2022-07-29T06:58:44;19.15;;;16.65;;
11414;SDS011;5763;42.714;23.244;2022-07-29T07:01:11;16.23;;;14.55;;
11414;SDS011;5763;42.714;23.244;2022-07-29T07:03:39;16.33;;;13.75;;
11414;SDS011;5763;42.714;23.244;2022-07-29T07:06:06;14.98;;;12.55;;
11414;SDS011;5763;42.714;23.244;2022-07-29T07:08:33;14.25;;;11.43;;
11414;SDS011;5763;42.714;23.244;2022-07-29T07:11:00;10.07;;;9.10;;
11414;SDS011;5763;42.714;23.244;2022-07-29T07:13:27;9.73;;;8.77;;
11414;SDS011;5763;42.714;23.244;2022-07-29T07:15:59;10.90;;;9.70;;
11414;SDS011;5763;42.714;23.244;2022-07-29T07:18:27;8.13;;;7.00;;
11414;SDS011;5763;42.714;23.244;2022-07-29T07:20:56;7.72;;;5.88;;
11414;SDS011;5763;42.714;23.244;2022-07-29T07:23:23;6.25;;;5.65;;
11414;SDS011;5763;42.714;23.244;2022-07-29T07:25:51;6.40;;;5.40;;
11414;SDS011;5763;42.714;23.244;2022-07-29T07:28:18;6.00;;;5.45;;
11414;SDS011;5763;42.714;23.244;2022-07-29T07:30:44;5.97;;;5.47;;
11414;SDS011;5763;42.714;23.244;2022-07-29T07:33:12;6.47;;;4.63;;
11414;SDS011;5763;42.714;23.244;2022-07-29T07:35:39;5.55;;;5.05;;
11414;SDS011;5763;42.714;23.244;2022-07-29T07:38:08;6.90;;;5.60;;
11414;SDS011;5763;42.714;23.244;2022-07-29T07:40:35;7.05;;;4.80;;
11414;SDS011;5763;42.714;23.244;2022-07-29T07:43:02;5.43;;;4.93;;
11414;SDS011;5763;42.714;23.244;2022-07-29T07:45:29;6.65;;;4.85;;
11414;SDS011;5763;42.714;23.244;2022-07-29T07:47:57;5.55;;;5.05;;
11414;SDS011;5763;42.714;23.244;2022-07-29T07:50:24;6.15;;;4.82;;
11414;SDS011;5763;42.714;23.244;2022-07-29T07:52:51;6.90;;;5.25;;
11414;SDS011;5763;42.714;23.244;2022-07-29T07:55:24;5.60;;;4.53;;
11414;SDS011;5763;42.714;23.244;2022-07-29T07:57:51;5.47;;;4.90;;
11414;SDS011;5763;42.714;23.244;2022-07-29T08:00:18;6.00;;;5.25;;
11414;SDS011;5763;42.714;23.244;2022-07-29T08:02:45;7.22;;;5.05;;
11414;SDS011;5763;42.714;23.244;2022-07-29T08:05:12;6.28;;;5.10;;
11414;SDS011;5763;42.714;23.244;2022-07-29T08:07:42;4.90;;;4.35;;
11414;SDS011;5763;42.714;23.244;2022-07-29T08:10:09;5.25;;;4.50;;
11414;SDS011;5763;42.714;23.244;2022-07-29T08:12:37;4.88;;;4.47;;
11414;SDS011;5763;42.714;23.244;2022-07-29T08:15:04;5.13;;;4.55;;
11414;SDS011;5763;42.714;23.244;2022-07-29T08:17:32;5.10;;;4.60;;
11414;SDS011;5763;42.714;23.244;2022-07-29T08:19:59;5.10;;;4.60;;
11414;SDS011;5763;42.714;23.244;2022-07-29T08:22:26;5.05;;;4.60;;
11414;SDS011;5763;42.714;23.244;2022-07-29T08:24:54;5.25;;;4.68;;
11414;SDS011;5763;42.714;23.244;2022-07-29T08:27:21;5.90;;;5.22;;
11414;SDS011;5763;42.714;23.244;2022-07-29T08:29:49;5.18;;;4.50;;
11414;SDS011;5763;42.714;23.244;2022-07-29T08:32:16;5.13;;;4.68;;
11414;SDS011;5763;42.714;23.244;2022-07-29T08:34:43;5.07;;;4.68;;
11414;SDS011;5763;42.714;23.244;2022-07-29T08:37:11;7.43;;;4.45;;
11414;SDS011;5763;42.714;23.244;2022-07-29T08:39:38;4.50;;;4.10;;
11414;SDS011;5763;42.714;23.244;2022-07-29T08:42:05;5.15;;;4.35;;
11414;SDS011;5763;42.714;23.244;2022-07-29T08:44:32;5.22;;;4.82;;
11414;SDS011;5763;42.714;23.244;2022-07-29T08:47:01;8.05;;;7.25;;
11414;SDS011;5763;42.714;23.244;2022-07-29T08:49:27;5.15;;;4.32;;
11414;SDS011;5763;42.714;23.244;2022-07-29T08:51:54;4.75;;;4.35;;
11414;SDS011;5763;42.714;23.244;2022-07-29T08:54:25;4.45;;;4.15;;
11414;SDS011;5763;42.714;23.244;2022-07-29T08:56:53;6.20;;;4.20;;
11414;SDS011;5763;42.714;23.244;2022-07-29T08:59:22;4.60;;;4.25;;
11414;SDS011;5763;42.714;23.244;2022-07-29T09:01:52;5.78;;;4.60;;
11414;SDS011;5763;42.714;23.244;2022-07-29T09:04:21;4.70;;;4.30;;
11414;SDS011;5763;42.714;23.244;2022-07-29T09:06:51;4.53;;;4.13;;
11414;SDS011;5763;42.714;23.244;2022-07-29T09:09:20;8.40;;;7.22;;
11414;SDS011;5763;42.714;23.244;2022-07-29T09:11:47;8.00;;;6.55;;
11414;SDS011;5763;42.714;23.244;2022-07-29T09:14:14;15.93;;;12.70;;
11414;SDS011;5763;42.714;23.244;2022-07-29T09:16:45;5.22;;;4.45;;
11414;SDS011;5763;42.714;23.244;2022-07-29T09:19:25;5.45;;;3.92;;
11414;SDS011;5763;42.714;23.244;2022-07-29T09:21:55;4.57;;;4.18;;
11414;SDS011;5763;42.714;23.244;2022-07-29T09:27:20;4.90;;;4.32;;
11414;SDS011;5763;42.714;23.244;2022-07-29T09:29:57;4.72;;;3.83;;
11414;SDS011;5763;42.714;23.244;2022-07-29T09:32:26;4.90;;;3.90;;
11414;SDS011;5763;42.714;23.244;2022-07-29T09:37:47;4.93;;;4.00;;
11414;SDS011;5763;42.714;23.244;2022-07-29T09:40:15;4.15;;;3.80;;
11414;SDS011;5763;42.714;23.244;2022-07-29T09:42:43;4.63;;;3.65;;
11414;SDS011;5763;42.714;23.244;2022-07-29T09:45:10;3.95;;;3.53;;
11414;SDS011;5763;42.714;23.244;2022-07-29T09:47:40;4.10;;;3.60;;
11414;SDS011;5763;42.714;23.244;2022-07-29T09:50:11;6.80;;;5.75;;
11414;SDS011;5763;42.714;23.244;2022-07-29T09:52:46;5.88;;;5.28;;
11414;SDS011;5763;42.714;23.244;2022-07-29T09:55:15;14.57;;;11.38;;
11414;SDS011;5763;42.714;23.244;2022-07-29T09:57:43;5.30;;;4.80;;
11414;SDS011;5763;42.714;23.244;2022-07-29T10:00:11;7.93;;;6.45;;
11414;SDS011;5763;42.714;23.244;2022-07-29T10:02:41;4.30;;;4.00;;
11414;SDS011;5763;42.714;23.244;2022-07-29T10:05:17;3.85;;;3.55;;
11414;SDS011;5763;42.714;23.244;2022-07-29T10:07:48;3.83;;;3.53;;
11414;SDS011;5763;42.714;23.244;2022-07-29T10:10:19;3.83;;;3.47;;
11414;SDS011;5763;42.714;23.244;2022-07-29T10:12:52;3.85;;;3.50;;
11414;SDS011;5763;42.714;23.244;2022-07-29T10:15:21;4.28;;;3.88;;
11414;SDS011;5763;42.714;23.244;2022-07-29T10:17:48;6.03;;;3.95;;
11414;SDS011;5763;42.714;23.244;2022-07-29T10:20:16;6.50;;;4.90;;
11414;SDS011;5763;42.714;23.244;2022-07-29T10:22:43;6.53;;;4.65;;
11414;SDS011;5763;42.714;23.244;2022-07-29T10:25:13;7.18;;;5.30;;
11414;SDS011;5763;42.714;23.244;2022-07-29T10:27:41;7.93;;;6.32;;
11414;SDS011;5763;42.714;23.244;2022-07-29T10:30:08;7.32;;;6.63;;
11414;SDS011;5763;42.714;23.244;2022-07-29T10:32:42;5.40;;;3.67;;
11414;SDS011;5763;42.714;23.244;2022-07-29T10:35:40;4.45;;;4.05;;
11414;SDS011;5763;42.714;23.244;2022-07-29T10:38:27;5.13;;;4.72;;
11414;SDS011;5763;42.714;23.244;2022-07-29T10:41:08;10.50;;;6.50;;
11414;SDS011;5763;42.714;23.244;2022-07-29T10:43:54;4.70;;;4.30;;
11414;SDS011;5763;42.714;23.244;2022-07-29T10:46:24;5.40;;;4.60;;
11414;SDS011;5763;42.714;23.244;2022-07-29T10:49:04;5.28;;;4.78;;
11414;SDS011;5763;42.714;23.244;2022-07-29T10:54:37;5.53;;;4.68;;
11414;SDS011;5763;42.714;23.244;2022-07-29T10:57:12;5.28;;;4.03;;
11414;SDS011;5763;42.714;23.244;2022-07-29T10:59:40;4.50;;;4.10;;
11414;SDS011;5763;42.714;23.244;2022-07-29T11:05:09;4.78;;;4.28;;
11414;SDS011;5763;42.714;23.244;2022-07-29T11:07:37;6.00;;;5.43;;
11414;SDS011;5763;42.714;23.244;2022-07-29T11:10:21;5.28;;;4.70;;
11414;SDS011;5763;42.714;23.244;2022-07-29T11:12:51;6.53;;;5.85;;
11414;SDS011;5763;42.714;23.244;2022-07-29T11:15:18;7.18;;;6.50;;
11414;SDS011;5763;42.714;23.244;2022-07-29T11:23:21;8.20;;;6.45;;
11414;SDS011;5763;42.714;23.244;2022-07-29T11:28:57;4.72;;;4.25;;
11414;SDS011;5763;42.714;23.244;2022-07-29T11:31:33;4.40;;;4.10;;
11414;SDS011;5763;42.714;23.244;2022-07-29T11:34:21;5.53;;;5.03;;
11414;SDS011;5763;42.714;23.244;2022-07-29T11:39:46;6.07;;;5.13;;
11414;SDS011;5763;42.714;23.244;2022-07-29T11:42:37;6.75;;;6.10;;
11414;SDS011;5763;42.714;23.244;2022-07-29T11:45:09;7.95;;;6.40;;
11414;SDS011;5763;42.714;23.244;2022-07-29T11:47:39;5.88;;;5.30;;
11414;SDS011;5763;42.714;23.244;2022-07-29T11:50:07;4.50;;;4.05;;
11414;SDS011;5763;42.714;23.244;2022-07-29T11:52:36;7.18;;;6.57;;
11414;SDS011;5763;42.714;23.244;2022-07-29T11:55:08;4.90;;;4.50;;
11414;SDS011;5763;42.714;23.244;2022-07-29T11:57:37;5.70;;;5.20;;
11414;SDS011;5763;42.714;23.244;2022-07-29T12:00:16;5.10;;;4.53;;
11414;SDS011;5763;42.714;23.244;2022-07-29T12:02:47;6.07;;;5.53;;
11414;SDS011;5763;42.714;23.244;2022-07-29T12:05:14;9.52;;;8.60;;
11414;SDS011;5763;42.714;23.244;2022-07-29T12:07:41;4.72;;;4.30;;
11414;SDS011;5763;42.714;23.244;2022-07-29T12:10:08;12.07;;;10.98;;
11414;SDS011;5763;42.714;23.244;2022-07-29T12:12:35;9.15;;;8.32;;
11414;SDS011;5763;42.714;23.244;2022-07-29T12:15:14;5.82;;;5.30;;
11414;SDS011;5763;42.714;23.244;2022-07-29T12:17:45;5.00;;;4.60;;
11414;SDS011;5763;42.714;23.244;2022-07-29T12:20:13;6.28;;;5.65;;
11414;SDS011;5763;42.714;23.244;2022-07-29T12:22:49;5.28;;;4.78;;
11414;SDS011;5763;42.714;23.244;2022-07-29T12:25:16;6.60;;;5.50;;
11414;SDS011;5763;42.714;23.244;2022-07-29T12:27:43;5.50;;;4.75;;
11414;SDS011;5763;42.714;23.244;2022-07-29T12:30:11;5.40;;;5.00;;
11414;SDS011;5763;42.714;23.244;2022-07-29T12:32:42;6.20;;;5.60;;
11414;SDS011;5763;42.714;23.244;2022-07-29T12:35:11;7.45;;;6.72;;
11414;SDS011;5763;42.714;23.244;2022-07-29T12:37:39;5.63;;;5.20;;
11414;SDS011;5763;42.714;23.244;2022-07-29T12:40:08;4.68;;;4.28;;
11414;SDS011;5763;42.714;23.244;2022-07-29T12:42:36;5.88;;;5.35;;
11414;SDS011;5763;42.714;23.244;2022-07-29T12:45:03;5.35;;;4.45;;
11414;SDS011;5763;42.714;23.244;2022-07-29T12:47:31;4.90;;;4.50;;
11414;SDS011;5763;42.714;23.244;2022-07-29T12:50:09;4.85;;;4.38;;
11414;SDS011;5763;42.714;23.244;2022-07-29T12:52:37;5.78;;;4.88;;
11414;SDS011;5763;42.714;23.244;2022-07-29T12:55:04;5.78;;;5.28;;
11414;SDS011;5763;42.714;23.244;2022-07-29T12:57:31;6.43;;;5.93;;
11414;SDS011;5763;42.714;23.244;2022-07-29T13:00:08;5.38;;;4.80;;
11414;SDS011;5763;42.714;23.244;2022-07-29T13:02:38;5.47;;;5.00;;
11414;SDS011;5763;42.714;23.244;2022-07-29T13:05:09;5.72;;;5.10;;
11414;SDS011;5763;42.714;23.244;2022-07-29T13:07:37;5.07;;;4.63;;
11414;SDS011;5763;42.714;23.244;2022-07-29T13:10:11;5.68;;;5.07;;
11414;SDS011;5763;42.714;23.244;2022-07-29T13:15:28;6.78;;;6.20;;
11414;SDS011;5763;42.714;23.244;2022-07-29T13:17:55;6.32;;;5.80;;
11414;SDS011;5763;42.714;23.244;2022-07-29T13:20:25;6.10;;;5.45;;
11414;SDS011;5763;42.714;23.244;2022-07-29T13:22:54;5.65;;;5.25;;
11414;SDS011;5763;42.714;23.244;2022-07-29T13:25:25;5.10;;;4.70;;
11414;SDS011;5763;42.714;23.244;2022-07-29T13:27:53;5.03;;;4.63;;
11414;SDS011;5763;42.714;23.244;2022-07-29T13:30:21;5.35;;;4.95;;
11414;SDS011;5763;42.714;23.244;2022-07-29T13:32:48;5.00;;;4.68;;
11414;SDS011;5763;42.714;23.244;2022-07-29T13:35:16;5.53;;;5.03;;
11414;SDS011;5763;42.714;23.244;2022-07-29T13:37:44;6.10;;;5.30;;
11414;SDS011;5763;42.714;23.244;2022-07-29T13:40:11;5.45;;;5.05;;
11414;SDS011;5763;42.714;23.244;2022-07-29T13:42:39;5.50;;;5.00;;
11414;SDS011;5763;42.714;23.244;2022-07-29T13:45:07;5.18;;;4.78;;
11414;SDS011;5763;42.714;23.244;2022-07-29T13:47:36;5.55;;;5.15;;
11414;SDS011;5763;42.714;23.244;2022-07-29T13:50:03;5.30;;;4.85;;
11414;SDS011;5763;42.714;23.244;2022-07-29T13:52:31;5.60;;;5.10;;
11414;SDS011;5763;42.714;23.244;2022-07-29T13:55:00;6.60;;;5.28;;
11414;SDS011;5763;42.714;23.244;2022-07-29T13:57:26;5.55;;;4.93;;
11414;SDS011;5763;42.714;23.244;2022-07-29T13:59:53;5.43;;;4.93;;
11414;SDS011;5763;42.714;23.244;2022-07-29T14:02:21;5.93;;;5.43;;
11414;SDS011;5763;42.714;23.244;2022-07-29T14:04:48;5.47;;;5.07;;
11414;SDS011;5763;42.714;23.244;2022-07-29T14:07:14;6.43;;;5.18;;
11414;SDS011;5763;42.714;23.244;2022-07-29T14:09:41;5.68;;;5.13;;
11414;SDS011;5763;42.714;23.244;2022-07-29T14:12:09;4.85;;;4.43;;
11414;SDS011;5763;42.714;23.244;2022-07-29T14:14:36;5.43;;;5.00;;
11414;SDS011;5763;42.714;23.244;2022-07-29T14:17:03;7.38;;;5.28;;
11414;SDS011;5763;42.714;23.244;2022-07-29T14:19:31;5.32;;;4.85;;
11414;SDS011;5763;42.714;23.244;2022-07-29T14:22:00;4.90;;;4.50;;
11414;SDS011;5763;42.714;23.244;2022-07-29T14:24:28;5.78;;;5.28;;
11414;SDS011;5763;42.714;23.244;2022-07-29T14:26:55;5.50;;;5.10;;
11414;SDS011;5763;42.714;23.244;2022-07-29T14:29:23;6.32;;;4.80;;
11414;SDS011;5763;42.714;23.244;2022-07-29T14:31:50;5.80;;;5.30;;
11414;SDS011;5763;42.714;23.244;2022-07-29T14:34:17;6.13;;;4.90;;
11414;SDS011;5763;42.714;23.244;2022-07-29T14:36:45;5.45;;;4.97;;
11414;SDS011;5763;42.714;23.244;2022-07-29T14:39:12;9.07;;;4.97;;
11414;SDS011;5763;42.714;23.244;2022-07-29T14:41:40;7.13;;;4.93;;
11414;SDS011;5763;42.714;23.244;2022-07-29T14:44:07;5.25;;;4.80;;
11414;SDS011;5763;42.714;23.244;2022-07-29T14:46:35;5.13;;;4.63;;
11414;SDS011;5763;42.714;23.244;2022-07-29T14:49:02;5.38;;;4.97;;
11414;SDS011;5763;42.714;23.244;2022-07-29T14:51:29;5.68;;;5.18;;
11414;SDS011;5763;42.714;23.244;2022-07-29T14:53:56;4.95;;;4.55;;
11414;SDS011;5763;42.714;23.244;2022-07-29T14:56:23;5.43;;;4.95;;
11414;SDS011;5763;42.714;23.244;2022-07-29T14:58:50;6.65;;;5.32;;
11414;SDS011;5763;42.714;23.244;2022-07-29T15:01:17;5.40;;;4.90;;
11414;SDS011;5763;42.714;23.244;2022-07-29T15:03:45;5.45;;;5.03;;
11414;SDS011;5763;42.714;23.244;2022-07-29T15:06:12;5.45;;;5.00;;
11414;SDS011;5763;42.714;23.244;2022-07-29T15:08:39;5.25;;;4.85;;
11414;SDS011;5763;42.714;23.244;2022-07-29T15:11:06;5.35;;;4.95;;
11414;SDS011;5763;42.714;23.244;2022-07-29T15:13:33;5.03;;;4.63;;
11414;SDS011;5763;42.714;23.244;2022-07-29T15:15:59;4.93;;;4.43;;
11414;SDS011;5763;42.714;23.244;2022-07-29T15:18:26;5.88;;;4.95;;